Belgrade, Serbia
Current Conditions -  °F | °C
As of 3:00 PM on Monday 20 Oct 2014 (Local Time) from LYBE Reporting Station
Clear Clear  
Wind Chill: 73°   Ceiling: Unl
Heat Index: 73°   Visibility: 6mi
Dew Point: 55°   Wind: 8mph
Humidity: 53%   Direction: 300°WNW
Pressure: 30.09"   Gusts: NA
Location:  44.83°N, 20.5°E
Report Text: LYBE 201300Z 30007KT CAVOK 23/13 Q1019 NOSIG
Loading
Personal Weather Stations






























Interactive Weather Map
Tropical Storm Tracking
New forecast layout! Learn more

10-Day Weather Forecast

Advertisements
Track Severe Weather on mobile